createdAt,value
2022-09-11T00:02:18.795Z,100.00
2022-09-11T00:07:20.151Z,100.00
2022-09-11T00:12:22.139Z,100.00
2022-09-11T00:17:23.793Z,100.00
2022-09-11T00:22:25.119Z,100.00
2022-09-11T00:27:26.512Z,100.00
2022-09-11T00:32:28.168Z,100.00
2022-09-11T00:37:29.481Z,100.00
2022-09-11T00:42:30.919Z,100.00
2022-09-11T00:47:32.350Z,100.00
2022-09-11T00:52:37.620Z,100.00
2022-09-11T00:57:42.268Z,100.00
2022-09-11T01:02:46.530Z,100.00
2022-09-11T01:07:49.187Z,100.00
2022-09-11T01:13:01.100Z,100.00
2022-09-11T01:18:07.854Z,100.00
2022-09-11T01:23:24.598Z,100.00
2022-09-11T01:28:33.685Z,100.00
2022-09-11T01:33:42.053Z,100.00
2022-09-11T01:38:46.807Z,100.00
2022-09-11T01:43:56.230Z,100.00
2022-09-11T01:49:02.556Z,100.00
2022-09-11T01:54:06.929Z,100.00
2022-09-11T01:59:12.200Z,100.00
2022-09-11T02:04:17.252Z,100.00
2022-09-11T02:09:21.687Z,100.00
2022-09-11T02:14:32.712Z,100.00
2022-09-11T02:19:34.120Z,100.00
2022-09-11T02:24:35.557Z,100.00
2022-09-11T02:29:37.110Z,100.00
2022-09-11T02:34:40.120Z,100.00
2022-09-11T02:39:53.714Z,100.00
2022-09-11T02:45:03.949Z,100.00
2022-09-11T02:50:08.400Z,100.00
2022-09-11T02:55:09.698Z,100.00
2022-09-11T03:00:11.915Z,100.00
2022-09-11T03:05:13.524Z,100.00
2022-09-11T03:10:15.060Z,100.00
2022-09-11T03:15:17.455Z,100.00
2022-09-11T03:20:20.145Z,100.00
2022-09-11T03:25:23.588Z,100.00
2022-09-11T03:30:24.917Z,100.00
2022-09-11T03:35:27.129Z,100.00
2022-09-11T03:40:28.471Z,100.00
2022-09-11T03:45:30.022Z,100.00
2022-09-11T03:50:31.341Z,100.00
2022-09-11T03:55:33.009Z,100.00
2022-09-11T04:00:34.372Z,100.00
2022-09-11T04:05:36.391Z,100.00
2022-09-11T04:10:38.305Z,100.00
2022-09-11T04:15:39.619Z,100.00
2022-09-11T04:20:40.921Z,100.00
2022-09-11T04:25:42.233Z,100.00
2022-09-11T04:30:43.541Z,100.00
2022-09-11T04:35:44.865Z,100.00
2022-09-11T04:40:46.259Z,100.00
2022-09-11T04:45:47.619Z,100.00
2022-09-11T04:50:48.957Z,100.00
2022-09-11T04:55:50.532Z,100.00
2022-09-11T05:00:51.857Z,100.00
2022-09-11T05:05:53.189Z,100.00
2022-09-11T05:10:55.116Z,100.00
2022-09-11T05:16:00.732Z,100.00
2022-09-11T05:21:03.343Z,100.00
2022-09-11T05:26:05.321Z,100.00
2022-09-11T05:31:13.719Z,100.00
2022-09-11T05:36:16.261Z,100.00
2022-09-11T05:41:17.593Z,100.00
2022-09-11T05:46:19.629Z,100.00
2022-09-11T05:51:21.765Z,100.00
2022-09-11T05:56:24.320Z,100.00
2022-09-11T06:01:26.668Z,100.00
2022-09-11T06:06:29.309Z,100.00
2022-09-11T06:11:30.995Z,100.00
2022-09-11T06:16:32.530Z,100.00
2022-09-11T06:21:34.104Z,100.00
2022-09-11T06:26:35.489Z,100.00
2022-09-11T06:31:36.807Z,100.00
2022-09-11T06:36:38.822Z,100.00
2022-09-11T06:41:40.133Z,100.00
2022-09-11T06:46:42.208Z,100.00
2022-09-11T06:51:43.671Z,100.00
2022-09-11T06:56:45.265Z,100.00
2022-09-11T07:01:46.696Z,100.00
2022-09-11T07:06:48.095Z,100.00
2022-09-11T07:11:49.481Z,100.00
2022-09-11T07:16:52.880Z,100.00
2022-09-11T07:21:54.292Z,100.00
2022-09-11T07:26:55.665Z,100.00
2022-09-11T07:31:58.565Z,100.00
2022-09-11T07:36:59.875Z,100.00
2022-09-11T07:42:01.269Z,100.00
2022-09-11T07:47:02.766Z,99.96
2022-09-11T07:52:04.309Z,95.53
2022-09-11T07:57:05.674Z,94.11
2022-09-11T08:02:11.681Z,95.28
2022-09-11T08:07:13.055Z,98.70
2022-09-11T08:12:14.489Z,96.78
2022-09-11T08:17:16.170Z,95.87
2022-09-11T08:22:17.859Z,92.22
2022-09-11T08:27:19.179Z,89.28
2022-09-11T08:32:22.253Z,82.11
2022-09-11T08:37:23.578Z,78.13
2022-09-11T08:42:27.246Z,70.70
2022-09-11T08:47:31.311Z,61.32
2022-09-11T08:52:33.203Z,74.25
2022-09-11T08:57:47.303Z,81.79
2022-09-11T09:03:08.617Z,82.38
2022-09-11T09:08:09.921Z,78.66
2022-09-11T09:13:24.245Z,74.04
2022-09-11T09:18:33.476Z,70.57
2022-09-11T09:23:49.511Z,72.36
2022-09-11T09:28:54.912Z,71.75
2022-09-11T09:34:09.546Z,72.78
2022-09-11T09:39:15.702Z,71.76
2022-09-11T09:44:27.859Z,71.00
2022-09-11T09:49:33.133Z,66.57
2022-09-11T09:54:36.391Z,68.25
2022-09-11T09:59:47.456Z,67.33
2022-09-11T10:05:02.309Z,72.17
2022-09-11T10:10:04.708Z,62.09
2022-09-11T10:15:06.540Z,59.20
2022-09-11T10:20:13.665Z,60.69
2022-09-11T10:25:16.020Z,60.40
2022-09-11T10:30:43.735Z,61.38
2022-09-11T10:35:55.065Z,58.74
2022-09-11T10:40:59.262Z,54.58
2022-09-11T10:46:28.706Z,51.62
2022-09-11T10:51:31.495Z,48.78
2022-09-11T10:56:35.866Z,48.90
2022-09-11T11:01:37.393Z,49.81
2022-09-11T11:06:53.427Z,49.04
2022-09-11T11:12:02.068Z,56.53
2022-09-11T11:17:18.485Z,51.33
2022-09-11T11:22:38.722Z,49.62
2022-09-11T11:28:00.704Z,52.24
2022-09-11T11:33:10.416Z,45.45
2022-09-11T11:38:16.353Z,45.49
2022-09-11T11:43:21.209Z,49.90
2022-09-11T11:48:34.425Z,45.77
2022-09-11T11:53:39.003Z,45.51
2022-09-11T11:58:47.627Z,43.71
2022-09-11T12:03:55.433Z,43.26
2022-09-11T12:08:57.336Z,43.34
2022-09-11T12:13:59.264Z,43.81
2022-09-11T12:19:04.241Z,44.20
2022-09-11T12:24:05.540Z,47.05
2022-09-11T12:29:13.966Z,44.85
2022-09-11T12:34:17.386Z,46.02
2022-09-11T12:39:37.404Z,45.67
2022-09-11T12:44:47.487Z,46.52
2022-09-11T12:49:58.894Z,49.70
2022-09-11T12:55:02.897Z,50.18
2022-09-11T13:00:11.103Z,50.11
2022-09-11T13:05:34.651Z,50.57
2022-09-11T13:10:37.599Z,48.77
2022-09-11T13:15:41.160Z,48.13
2022-09-11T13:20:42.575Z,51.15
2022-09-11T13:25:45.045Z,50.09
2022-09-11T13:31:03.313Z,48.86
2022-09-11T13:36:06.857Z,50.86
2022-09-11T13:41:16.740Z,49.04
2022-09-11T13:46:19.466Z,48.80
2022-09-11T13:51:22.592Z,50.96
2022-09-11T13:56:47.197Z,51.36
2022-09-11T14:01:53.892Z,49.52
2022-09-11T14:06:55.989Z,52.37
2022-09-11T14:12:02.245Z,54.40
2022-09-11T14:17:03.606Z,51.19
2022-09-11T14:22:22.578Z,51.27
2022-09-11T14:27:32.913Z,50.08
2022-09-11T14:32:36.812Z,52.25
2022-09-11T14:37:43.950Z,52.73
2022-09-11T14:42:45.614Z,54.19
2022-09-11T14:47:46.925Z,54.73
2022-09-11T14:52:48.256Z,52.05
2022-09-11T14:57:50.053Z,53.67
2022-09-11T15:02:52.055Z,54.05
2022-09-11T15:07:53.360Z,52.94
2022-09-11T15:12:55.508Z,54.23
2022-09-11T15:17:57.130Z,55.68
2022-09-11T15:22:58.539Z,56.28
2022-09-11T15:27:59.859Z,57.05
2022-09-11T15:33:01.215Z,56.46
2022-09-11T15:38:05.512Z,56.30
2022-09-11T15:43:06.934Z,56.82
2022-09-11T15:48:08.288Z,57.32
2022-09-11T15:53:10.112Z,57.07
2022-09-11T15:58:11.727Z,59.26
2022-09-11T16:03:13.046Z,58.31
2022-09-11T16:08:15.387Z,58.92
2022-09-11T16:13:17.732Z,58.26
2022-09-11T16:18:19.506Z,58.69
2022-09-11T16:23:21.872Z,59.79
2022-09-11T16:28:23.331Z,59.98
2022-09-11T16:33:24.663Z,61.01
2022-09-11T16:38:26.113Z,61.01
2022-09-11T16:43:27.528Z,60.92
2022-09-11T16:48:29.273Z,62.68
2022-09-11T16:53:31.850Z,62.15
2022-09-11T16:58:36.500Z,63.82
2022-09-11T17:03:41.375Z,66.85
2022-09-11T17:08:44.625Z,69.02
2022-09-11T17:13:46.634Z,65.79
2022-09-11T17:18:49.050Z,67.57
2022-09-11T17:23:51.535Z,67.62
2022-09-11T17:28:55.009Z,69.21
2022-09-11T17:33:56.597Z,71.83
2022-09-11T17:38:59.412Z,73.03
2022-09-11T17:44:00.799Z,74.47
2022-09-11T17:49:02.282Z,75.80
2022-09-11T17:54:03.669Z,78.11
2022-09-11T17:59:04.990Z,80.05
2022-09-11T18:04:06.966Z,81.38
2022-09-11T18:09:13.843Z,82.70
2022-09-11T18:14:16.378Z,84.74
2022-09-11T18:19:20.296Z,85.30
2022-09-11T18:24:21.971Z,87.73
2022-09-11T18:29:23.275Z,89.39
2022-09-11T18:34:28.076Z,90.03
2022-09-11T18:39:29.391Z,91.43
2022-09-11T18:44:30.714Z,93.31
2022-09-11T18:49:32.083Z,97.30
2022-09-11T18:54:33.656Z,96.98
2022-09-11T18:59:34.975Z,97.63
2022-09-11T19:04:36.275Z,98.72
2022-09-11T19:09:37.862Z,98.72
2022-09-11T19:14:39.168Z,99.56
2022-09-11T19:19:40.499Z,99.89
2022-09-11T19:24:42.529Z,100.00
2022-09-11T19:29:43.972Z,100.00
2022-09-11T19:34:47.514Z,100.00
2022-09-11T19:39:50.775Z,100.00
2022-09-11T19:44:55.723Z,100.00
2022-09-11T19:50:00.210Z,100.00
2022-09-11T19:55:01.782Z,100.00
2022-09-11T20:00:03.951Z,100.00
2022-09-11T20:05:05.428Z,100.00
2022-09-11T20:10:08.147Z,100.00
2022-09-11T20:15:09.695Z,100.00
2022-09-11T20:20:11.880Z,100.00
2022-09-11T20:25:13.196Z,100.00
2022-09-11T20:30:14.549Z,100.00
2022-09-11T20:35:15.959Z,100.00
2022-09-11T20:40:17.335Z,100.00
2022-09-11T20:45:18.713Z,100.00
2022-09-11T20:50:20.020Z,100.00
2022-09-11T20:55:21.345Z,100.00
2022-09-11T21:00:22.757Z,100.00
2022-09-11T21:05:24.062Z,100.00
2022-09-11T21:10:25.461Z,100.00
2022-09-11T21:15:26.833Z,100.00
2022-09-11T21:20:28.142Z,100.00
2022-09-11T21:25:29.554Z,100.00
2022-09-11T21:30:30.953Z,100.00
2022-09-11T21:35:32.261Z,100.00
2022-09-11T21:40:33.640Z,100.00
2022-09-11T21:45:34.960Z,100.00
2022-09-11T21:50:36.908Z,100.00
2022-09-11T21:55:42.486Z,100.00
2022-09-11T22:00:43.917Z,100.00
2022-09-11T22:05:47.649Z,100.00
2022-09-11T22:10:50.409Z,100.00
2022-09-11T22:15:52.967Z,100.00
2022-09-11T22:20:58.235Z,100.00
2022-09-11T22:26:01.520Z,100.00
2022-09-11T22:31:07.609Z,100.00
2022-09-11T22:36:13.444Z,100.00
2022-09-11T22:41:15.223Z,100.00
2022-09-11T22:46:17.392Z,100.00
2022-09-11T22:51:18.749Z,100.00
2022-09-11T22:56:20.078Z,100.00
2022-09-11T23:01:22.727Z,100.00
2022-09-11T23:06:43.275Z,100.00
2022-09-11T23:11:45.457Z,100.00
2022-09-11T23:16:46.785Z,100.00
2022-09-11T23:21:48.123Z,100.00
2022-09-11T23:26:49.704Z,100.00
2022-09-11T23:31:51.142Z,100.00
2022-09-11T23:36:52.742Z,100.00
2022-09-11T23:41:54.212Z,100.00
2022-09-11T23:46:55.528Z,100.00
2022-09-11T23:51:56.896Z,100.00
2022-09-11T23:56:58.389Z,100.00
